sensor_id;sensor_type;location;lat;lon;timestamp;P1;durP1;ratioP1;P2;durP2;ratioP2
75272;SDS011;63869;52.344;16.928;2023-06-26T00:01:49;8.85;;;6.18;;
75272;SDS011;63869;52.344;16.928;2023-06-26T00:04:14;8.80;;;6.55;;
75272;SDS011;63869;52.344;16.928;2023-06-26T00:06:40;8.65;;;6.22;;
75272;SDS011;63869;52.344;16.928;2023-06-26T00:09:06;9.27;;;6.20;;
75272;SDS011;63869;52.344;16.928;2023-06-26T00:11:32;10.23;;;6.22;;
75272;SDS011;63869;52.344;16.928;2023-06-26T00:13:58;10.80;;;6.40;;
75272;SDS011;63869;52.344;16.928;2023-06-26T00:16:26;10.10;;;6.18;;
75272;SDS011;63869;52.344;16.928;2023-06-26T00:18:52;8.93;;;6.28;;
75272;SDS011;63869;52.344;16.928;2023-06-26T00:21:19;8.90;;;5.85;;
75272;SDS011;63869;52.344;16.928;2023-06-26T00:23:45;7.50;;;6.00;;
75272;SDS011;63869;52.344;16.928;2023-06-26T00:26:11;9.35;;;6.18;;
75272;SDS011;63869;52.344;16.928;2023-06-26T00:28:36;8.50;;;6.15;;
75272;SDS011;63869;52.344;16.928;2023-06-26T00:31:01;8.27;;;6.32;;
75272;SDS011;63869;52.344;16.928;2023-06-26T00:33:27;9.00;;;6.35;;
75272;SDS011;63869;52.344;16.928;2023-06-26T00:35:52;9.48;;;6.28;;
75272;SDS011;63869;52.344;16.928;2023-06-26T00:38:18;10.32;;;6.30;;
75272;SDS011;63869;52.344;16.928;2023-06-26T00:40:44;11.25;;;6.82;;
75272;SDS011;63869;52.344;16.928;2023-06-26T00:43:09;10.20;;;6.50;;
75272;SDS011;63869;52.344;16.928;2023-06-26T00:45:35;11.18;;;6.35;;
75272;SDS011;63869;52.344;16.928;2023-06-26T00:48:00;9.60;;;6.45;;
75272;SDS011;63869;52.344;16.928;2023-06-26T00:50:26;10.23;;;7.10;;
75272;SDS011;63869;52.344;16.928;2023-06-26T00:52:52;9.30;;;6.30;;
75272;SDS011;63869;52.344;16.928;2023-06-26T00:55:20;9.65;;;6.55;;
75272;SDS011;63869;52.344;16.928;2023-06-26T00:57:45;9.60;;;7.03;;
75272;SDS011;63869;52.344;16.928;2023-06-26T01:00:11;9.43;;;6.97;;
75272;SDS011;63869;52.344;16.928;2023-06-26T01:02:38;11.60;;;6.55;;
75272;SDS011;63869;52.344;16.928;2023-06-26T01:05:04;11.43;;;6.82;;
75272;SDS011;63869;52.344;16.928;2023-06-26T01:07:31;9.70;;;6.32;;
75272;SDS011;63869;52.344;16.928;2023-06-26T01:10:01;10.52;;;7.28;;
75272;SDS011;63869;52.344;16.928;2023-06-26T01:12:31;10.75;;;7.40;;
75272;SDS011;63869;52.344;16.928;2023-06-26T01:14:57;11.77;;;6.95;;
75272;SDS011;63869;52.344;16.928;2023-06-26T01:17:24;9.98;;;6.82;;
75272;SDS011;63869;52.344;16.928;2023-06-26T01:19:49;10.68;;;6.80;;
75272;SDS011;63869;52.344;16.928;2023-06-26T01:22:36;9.00;;;6.80;;
75272;SDS011;63869;52.344;16.928;2023-06-26T01:25:29;11.57;;;6.93;;
75272;SDS011;63869;52.344;16.928;2023-06-26T01:28:04;11.65;;;6.72;;
75272;SDS011;63869;52.344;16.928;2023-06-26T01:30:31;12.35;;;7.28;;
75272;SDS011;63869;52.344;16.928;2023-06-26T01:32:59;11.70;;;6.80;;
75272;SDS011;63869;52.344;16.928;2023-06-26T01:35:26;12.70;;;7.13;;
75272;SDS011;63869;52.344;16.928;2023-06-26T01:37:51;10.57;;;6.88;;
75272;SDS011;63869;52.344;16.928;2023-06-26T01:40:17;9.93;;;6.60;;
75272;SDS011;63869;52.344;16.928;2023-06-26T01:42:42;9.45;;;6.82;;
75272;SDS011;63869;52.344;16.928;2023-06-26T01:45:23;13.57;;;7.22;;
75272;SDS011;63869;52.344;16.928;2023-06-26T01:47:51;11.90;;;7.10;;
75272;SDS011;63869;52.344;16.928;2023-06-26T01:50:25;11.60;;;7.13;;
75272;SDS011;63869;52.344;16.928;2023-06-26T01:55:45;9.80;;;6.60;;
75272;SDS011;63869;52.344;16.928;2023-06-26T01:58:14;13.07;;;7.35;;
75272;SDS011;63869;52.344;16.928;2023-06-26T02:00:41;11.32;;;7.18;;
75272;SDS011;63869;52.344;16.928;2023-06-26T02:03:07;9.45;;;7.28;;
75272;SDS011;63869;52.344;16.928;2023-06-26T02:05:32;15.80;;;7.63;;
75272;SDS011;63869;52.344;16.928;2023-06-26T02:07:58;12.80;;;7.70;;
75272;SDS011;63869;52.344;16.928;2023-06-26T02:10:23;10.02;;;7.40;;
75272;SDS011;63869;52.344;16.928;2023-06-26T02:12:48;12.60;;;7.40;;
75272;SDS011;63869;52.344;16.928;2023-06-26T02:15:14;12.15;;;7.68;;
75272;SDS011;63869;52.344;16.928;2023-06-26T02:17:39;11.85;;;7.47;;
75272;SDS011;63869;52.344;16.928;2023-06-26T02:20:05;10.75;;;7.35;;
75272;SDS011;63869;52.344;16.928;2023-06-26T02:22:31;12.00;;;7.97;;
75272;SDS011;63869;52.344;16.928;2023-06-26T02:24:56;11.13;;;7.60;;
75272;SDS011;63869;52.344;16.928;2023-06-26T02:27:22;14.25;;;7.93;;
75272;SDS011;63869;52.344;16.928;2023-06-26T02:29:47;12.07;;;7.60;;
75272;SDS011;63869;52.344;16.928;2023-06-26T02:32:13;11.40;;;7.30;;
75272;SDS011;63869;52.344;16.928;2023-06-26T02:34:38;11.70;;;7.70;;
75272;SDS011;63869;52.344;16.928;2023-06-26T02:37:03;14.07;;;8.18;;
75272;SDS011;63869;52.344;16.928;2023-06-26T02:39:31;11.48;;;7.75;;
75272;SDS011;63869;52.344;16.928;2023-06-26T02:41:56;12.20;;;7.10;;
75272;SDS011;63869;52.344;16.928;2023-06-26T02:44:22;13.18;;;7.65;;
75272;SDS011;63869;52.344;16.928;2023-06-26T02:46:47;12.95;;;6.97;;
75272;SDS011;63869;52.344;16.928;2023-06-26T02:49:12;11.35;;;7.20;;
75272;SDS011;63869;52.344;16.928;2023-06-26T02:51:38;10.98;;;7.13;;
75272;SDS011;63869;52.344;16.928;2023-06-26T02:54:03;12.10;;;7.80;;
75272;SDS011;63869;52.344;16.928;2023-06-26T02:56:28;13.70;;;7.47;;
75272;SDS011;63869;52.344;16.928;2023-06-26T02:58:57;10.90;;;7.40;;
75272;SDS011;63869;52.344;16.928;2023-06-26T03:01:22;11.43;;;7.22;;
75272;SDS011;63869;52.344;16.928;2023-06-26T03:03:48;12.20;;;7.90;;
75272;SDS011;63869;52.344;16.928;2023-06-26T03:06:13;11.07;;;7.65;;
75272;SDS011;63869;52.344;16.928;2023-06-26T03:08:40;11.77;;;7.30;;
75272;SDS011;63869;52.344;16.928;2023-06-26T03:11:06;9.32;;;7.03;;
75272;SDS011;63869;52.344;16.928;2023-06-26T03:13:32;14.15;;;7.95;;
75272;SDS011;63869;52.344;16.928;2023-06-26T03:15:58;12.07;;;7.63;;
75272;SDS011;63869;52.344;16.928;2023-06-26T03:18:24;10.13;;;7.28;;
75272;SDS011;63869;52.344;16.928;2023-06-26T03:20:50;11.63;;;8.45;;
75272;SDS011;63869;52.344;16.928;2023-06-26T03:23:16;11.90;;;8.23;;
75272;SDS011;63869;52.344;16.928;2023-06-26T03:25:41;13.02;;;7.50;;
75272;SDS011;63869;52.344;16.928;2023-06-26T03:28:06;11.13;;;7.93;;
75272;SDS011;63869;52.344;16.928;2023-06-26T03:30:32;12.20;;;7.55;;
75272;SDS011;63869;52.344;16.928;2023-06-26T03:32:57;13.00;;;7.88;;
75272;SDS011;63869;52.344;16.928;2023-06-26T03:35:22;12.95;;;7.63;;
75272;SDS011;63869;52.344;16.928;2023-06-26T03:37:48;12.43;;;7.88;;
75272;SDS011;63869;52.344;16.928;2023-06-26T03:40:14;14.13;;;8.13;;
75272;SDS011;63869;52.344;16.928;2023-06-26T03:42:39;11.82;;;7.63;;
75272;SDS011;63869;52.344;16.928;2023-06-26T03:45:05;22.10;;;9.18;;
75272;SDS011;63869;52.344;16.928;2023-06-26T03:47:31;13.48;;;8.10;;
75272;SDS011;63869;52.344;16.928;2023-06-26T03:49:57;14.38;;;8.35;;
75272;SDS011;63869;52.344;16.928;2023-06-26T03:52:22;28.48;;;8.90;;
75272;SDS011;63869;52.344;16.928;2023-06-26T03:54:48;20.27;;;8.73;;
75272;SDS011;63869;52.344;16.928;2023-06-26T03:57:14;13.55;;;7.93;;
75272;SDS011;63869;52.344;16.928;2023-06-26T03:59:39;27.75;;;9.18;;
75272;SDS011;63869;52.344;16.928;2023-06-26T04:02:04;29.23;;;8.57;;
75272;SDS011;63869;52.344;16.928;2023-06-26T04:04:30;18.75;;;8.38;;
75272;SDS011;63869;52.344;16.928;2023-06-26T04:06:55;16.48;;;8.07;;
75272;SDS011;63869;52.344;16.928;2023-06-26T04:09:20;11.80;;;7.85;;
75272;SDS011;63869;52.344;16.928;2023-06-26T04:11:46;13.77;;;7.47;;
75272;SDS011;63869;52.344;16.928;2023-06-26T04:14:11;16.42;;;7.80;;
75272;SDS011;63869;52.344;16.928;2023-06-26T04:16:37;13.63;;;7.70;;
75272;SDS011;63869;52.344;16.928;2023-06-26T04:19:03;13.05;;;8.25;;
75272;SDS011;63869;52.344;16.928;2023-06-26T04:21:29;13.50;;;8.10;;
75272;SDS011;63869;52.344;16.928;2023-06-26T04:23:55;16.23;;;8.05;;
75272;SDS011;63869;52.344;16.928;2023-06-26T04:26:20;18.58;;;8.52;;
75272;SDS011;63869;52.344;16.928;2023-06-26T04:28:45;12.60;;;7.90;;
75272;SDS011;63869;52.344;16.928;2023-06-26T04:31:11;12.57;;;7.90;;
75272;SDS011;63869;52.344;16.928;2023-06-26T04:33:36;12.75;;;7.63;;
75272;SDS011;63869;52.344;16.928;2023-06-26T04:36:03;31.98;;;9.40;;
75272;SDS011;63869;52.344;16.928;2023-06-26T04:38:29;13.80;;;8.02;;
75272;SDS011;63869;52.344;16.928;2023-06-26T04:40:56;10.68;;;7.07;;
75272;SDS011;63869;52.344;16.928;2023-06-26T04:43:22;14.90;;;8.07;;
75272;SDS011;63869;52.344;16.928;2023-06-26T04:45:47;11.38;;;7.57;;
75272;SDS011;63869;52.344;16.928;2023-06-26T04:48:12;11.93;;;7.97;;
75272;SDS011;63869;52.344;16.928;2023-06-26T04:50:38;29.38;;;8.80;;
75272;SDS011;63869;52.344;16.928;2023-06-26T04:53:03;11.23;;;6.85;;
75272;SDS011;63869;52.344;16.928;2023-06-26T04:55:28;13.63;;;6.57;;
75272;SDS011;63869;52.344;16.928;2023-06-26T04:57:55;11.23;;;6.90;;
75272;SDS011;63869;52.344;16.928;2023-06-26T05:00:20;12.25;;;7.30;;
75272;SDS011;63869;52.344;16.928;2023-06-26T05:02:46;8.98;;;6.22;;
75272;SDS011;63869;52.344;16.928;2023-06-26T05:05:11;12.02;;;6.90;;
75272;SDS011;63869;52.344;16.928;2023-06-26T05:07:38;9.40;;;6.47;;
75272;SDS011;63869;52.344;16.928;2023-06-26T05:10:06;10.30;;;6.63;;
75272;SDS011;63869;52.344;16.928;2023-06-26T05:12:33;10.43;;;6.50;;
75272;SDS011;63869;52.344;16.928;2023-06-26T05:14:58;9.82;;;6.30;;
75272;SDS011;63869;52.344;16.928;2023-06-26T05:17:24;8.60;;;6.15;;
75272;SDS011;63869;52.344;16.928;2023-06-26T05:19:49;17.90;;;6.38;;
75272;SDS011;63869;52.344;16.928;2023-06-26T05:22:14;11.55;;;5.68;;
75272;SDS011;63869;52.344;16.928;2023-06-26T05:24:42;9.35;;;6.15;;
75272;SDS011;63869;52.344;16.928;2023-06-26T05:27:10;8.45;;;5.70;;
75272;SDS011;63869;52.344;16.928;2023-06-26T05:29:37;10.75;;;6.07;;
75272;SDS011;63869;52.344;16.928;2023-06-26T05:32:03;8.88;;;5.68;;
75272;SDS011;63869;52.344;16.928;2023-06-26T05:34:29;10.25;;;5.75;;
75272;SDS011;63869;52.344;16.928;2023-06-26T05:37:00;9.25;;;5.68;;
75272;SDS011;63869;52.344;16.928;2023-06-26T05:39:25;7.82;;;5.20;;
75272;SDS011;63869;52.344;16.928;2023-06-26T05:41:51;10.85;;;5.47;;
75272;SDS011;63869;52.344;16.928;2023-06-26T05:44:17;8.23;;;5.15;;
75272;SDS011;63869;52.344;16.928;2023-06-26T05:46:43;12.00;;;5.32;;
75272;SDS011;63869;52.344;16.928;2023-06-26T05:49:08;21.33;;;6.32;;
75272;SDS011;63869;52.344;16.928;2023-06-26T05:51:34;10.18;;;6.07;;
75272;SDS011;63869;52.344;16.928;2023-06-26T05:54:00;8.95;;;5.32;;
75272;SDS011;63869;52.344;16.928;2023-06-26T05:56:25;11.00;;;5.78;;
75272;SDS011;63869;52.344;16.928;2023-06-26T05:58:51;7.22;;;5.30;;
75272;SDS011;63869;52.344;16.928;2023-06-26T06:01:17;9.15;;;5.40;;
75272;SDS011;63869;52.344;16.928;2023-06-26T06:03:44;9.90;;;5.60;;
75272;SDS011;63869;52.344;16.928;2023-06-26T06:06:10;12.60;;;5.60;;
75272;SDS011;63869;52.344;16.928;2023-06-26T06:08:37;16.70;;;5.53;;
75272;SDS011;63869;52.344;16.928;2023-06-26T06:11:03;7.70;;;4.78;;
75272;SDS011;63869;52.344;16.928;2023-06-26T06:13:28;7.35;;;5.20;;
75272;SDS011;63869;52.344;16.928;2023-06-26T06:15:53;7.15;;;4.60;;
75272;SDS011;63869;52.344;16.928;2023-06-26T06:18:21;10.65;;;5.28;;
75272;SDS011;63869;52.344;16.928;2023-06-26T06:20:46;9.23;;;4.82;;
75272;SDS011;63869;52.344;16.928;2023-06-26T06:23:12;7.50;;;4.80;;
75272;SDS011;63869;52.344;16.928;2023-06-26T06:25:37;5.45;;;4.47;;
75272;SDS011;63869;52.344;16.928;2023-06-26T06:28:04;8.80;;;5.35;;
75272;SDS011;63869;52.344;16.928;2023-06-26T06:30:29;8.68;;;5.00;;
75272;SDS011;63869;52.344;16.928;2023-06-26T06:32:55;8.40;;;4.63;;
75272;SDS011;63869;52.344;16.928;2023-06-26T06:35:20;7.93;;;5.50;;
75272;SDS011;63869;52.344;16.928;2023-06-26T06:37:46;11.45;;;5.07;;
75272;SDS011;63869;52.344;16.928;2023-06-26T06:40:11;8.27;;;5.10;;
75272;SDS011;63869;52.344;16.928;2023-06-26T06:42:37;6.95;;;5.18;;
75272;SDS011;63869;52.344;16.928;2023-06-26T06:45:03;7.78;;;4.75;;
75272;SDS011;63869;52.344;16.928;2023-06-26T06:47:29;9.48;;;4.45;;
75272;SDS011;63869;52.344;16.928;2023-06-26T06:49:55;6.38;;;4.63;;
75272;SDS011;63869;52.344;16.928;2023-06-26T06:52:20;7.10;;;5.05;;
75272;SDS011;63869;52.344;16.928;2023-06-26T06:54:52;7.70;;;4.75;;
75272;SDS011;63869;52.344;16.928;2023-06-26T06:57:19;20.05;;;5.68;;
75272;SDS011;63869;52.344;16.928;2023-06-26T06:59:45;9.43;;;4.28;;
75272;SDS011;63869;52.344;16.928;2023-06-26T07:02:12;8.75;;;4.68;;
75272;SDS011;63869;52.344;16.928;2023-06-26T07:04:38;8.95;;;4.65;;
75272;SDS011;63869;52.344;16.928;2023-06-26T07:07:03;8.55;;;4.50;;
75272;SDS011;63869;52.344;16.928;2023-06-26T07:09:29;9.38;;;4.55;;
75272;SDS011;63869;52.344;16.928;2023-06-26T07:11:54;8.30;;;4.13;;
75272;SDS011;63869;52.344;16.928;2023-06-26T07:14:19;6.85;;;4.10;;
75272;SDS011;63869;52.344;16.928;2023-06-26T07:16:45;6.07;;;3.85;;
75272;SDS011;63869;52.344;16.928;2023-06-26T07:19:10;5.38;;;3.40;;
75272;SDS011;63869;52.344;16.928;2023-06-26T07:21:35;6.82;;;3.35;;
75272;SDS011;63869;52.344;16.928;2023-06-26T07:24:01;8.70;;;3.90;;
75272;SDS011;63869;52.344;16.928;2023-06-26T07:26:26;11.30;;;4.05;;
75272;SDS011;63869;52.344;16.928;2023-06-26T07:28:52;5.85;;;4.00;;
75272;SDS011;63869;52.344;16.928;2023-06-26T07:31:18;7.60;;;3.67;;
75272;SDS011;63869;52.344;16.928;2023-06-26T07:33:43;3.92;;;2.90;;
75272;SDS011;63869;52.344;16.928;2023-06-26T07:36:09;5.80;;;3.33;;
75272;SDS011;63869;52.344;16.928;2023-06-26T07:38:34;4.50;;;3.30;;
75272;SDS011;63869;52.344;16.928;2023-06-26T07:41:00;4.50;;;3.50;;
75272;SDS011;63869;52.344;16.928;2023-06-26T07:43:25;4.50;;;3.42;;
75272;SDS011;63869;52.344;16.928;2023-06-26T07:45:50;4.97;;;3.30;;
75272;SDS011;63869;52.344;16.928;2023-06-26T07:48:18;5.97;;;3.65;;
75272;SDS011;63869;52.344;16.928;2023-06-26T07:50:44;4.85;;;3.60;;
75272;SDS011;63869;52.344;16.928;2023-06-26T07:53:09;5.18;;;3.30;;
75272;SDS011;63869;52.344;16.928;2023-06-26T07:55:34;27.20;;;4.45;;
75272;SDS011;63869;52.344;16.928;2023-06-26T07:57:59;5.70;;;3.50;;
75272;SDS011;63869;52.344;16.928;2023-06-26T08:00:26;4.80;;;3.55;;
75272;SDS011;63869;52.344;16.928;2023-06-26T08:02:51;5.88;;;3.60;;
75272;SDS011;63869;52.344;16.928;2023-06-26T08:05:16;4.60;;;3.43;;
75272;SDS011;63869;52.344;16.928;2023-06-26T08:07:42;6.18;;;3.78;;
75272;SDS011;63869;52.344;16.928;2023-06-26T08:10:07;5.43;;;3.38;;
75272;SDS011;63869;52.344;16.928;2023-06-26T08:12:33;5.47;;;3.55;;
75272;SDS011;63869;52.344;16.928;2023-06-26T08:14:59;6.07;;;3.70;;
75272;SDS011;63869;52.344;16.928;2023-06-26T08:17:25;5.72;;;3.70;;
75272;SDS011;63869;52.344;16.928;2023-06-26T08:19:51;5.07;;;3.40;;
75272;SDS011;63869;52.344;16.928;2023-06-26T08:22:16;6.50;;;3.70;;
75272;SDS011;63869;52.344;16.928;2023-06-26T08:24:41;6.75;;;4.10;;
75272;SDS011;63869;52.344;16.928;2023-06-26T08:27:07;5.60;;;3.60;;
75272;SDS011;63869;52.344;16.928;2023-06-26T08:29:32;4.88;;;3.85;;
75272;SDS011;63869;52.344;16.928;2023-06-26T08:31:58;5.13;;;3.53;;
75272;SDS011;63869;52.344;16.928;2023-06-26T08:34:24;6.45;;;3.78;;
75272;SDS011;63869;52.344;16.928;2023-06-26T08:36:49;7.65;;;3.88;;
75272;SDS011;63869;52.344;16.928;2023-06-26T08:39:15;5.85;;;4.03;;
75272;SDS011;63869;52.344;16.928;2023-06-26T08:41:40;6.80;;;4.13;;
75272;SDS011;63869;52.344;16.928;2023-06-26T08:44:07;5.93;;;4.05;;
75272;SDS011;63869;52.344;16.928;2023-06-26T08:46:32;5.30;;;4.07;;
75272;SDS011;63869;52.344;16.928;2023-06-26T08:49:10;5.90;;;4.25;;
75272;SDS011;63869;52.344;16.928;2023-06-26T08:51:39;4.93;;;3.83;;
75272;SDS011;63869;52.344;16.928;2023-06-26T08:54:11;5.35;;;3.72;;
75272;SDS011;63869;52.344;16.928;2023-06-26T08:56:40;6.18;;;4.25;;
75272;SDS011;63869;52.344;16.928;2023-06-26T08:59:10;5.33;;;3.97;;
75272;SDS011;63869;52.344;16.928;2023-06-26T09:01:37;6.32;;;3.70;;
75272;SDS011;63869;52.344;16.928;2023-06-26T09:04:03;6.28;;;4.18;;
75272;SDS011;63869;52.344;16.928;2023-06-26T09:06:29;6.90;;;3.78;;
75272;SDS011;63869;52.344;16.928;2023-06-26T09:08:54;6.47;;;4.03;;
75272;SDS011;63869;52.344;16.928;2023-06-26T09:11:21;6.88;;;4.00;;
75272;SDS011;63869;52.344;16.928;2023-06-26T09:13:46;10.27;;;4.55;;
75272;SDS011;63869;52.344;16.928;2023-06-26T09:16:12;5.40;;;4.10;;
75272;SDS011;63869;52.344;16.928;2023-06-26T09:18:37;6.50;;;4.35;;
75272;SDS011;63869;52.344;16.928;2023-06-26T09:21:06;7.55;;;4.53;;
75272;SDS011;63869;52.344;16.928;2023-06-26T09:23:34;5.60;;;4.10;;
75272;SDS011;63869;52.344;16.928;2023-06-26T09:26:02;4.82;;;3.83;;
75272;SDS011;63869;52.344;16.928;2023-06-26T09:28:31;5.35;;;3.65;;
75272;SDS011;63869;52.344;16.928;2023-06-26T09:31:05;4.65;;;3.70;;
75272;SDS011;63869;52.344;16.928;2023-06-26T09:36:06;6.90;;;4.10;;
75272;SDS011;63869;52.344;16.928;2023-06-26T09:38:33;7.70;;;4.00;;
75272;SDS011;63869;52.344;16.928;2023-06-26T09:40:59;4.70;;;3.67;;
75272;SDS011;63869;52.344;16.928;2023-06-26T09:43:24;6.45;;;4.00;;
75272;SDS011;63869;52.344;16.928;2023-06-26T09:45:50;5.95;;;4.00;;
75272;SDS011;63869;52.344;16.928;2023-06-26T09:48:16;5.63;;;4.10;;
75272;SDS011;63869;52.344;16.928;2023-06-26T09:50:42;6.03;;;3.70;;
75272;SDS011;63869;52.344;16.928;2023-06-26T09:53:08;6.43;;;3.88;;
75272;SDS011;63869;52.344;16.928;2023-06-26T09:55:38;4.50;;;3.70;;
75272;SDS011;63869;52.344;16.928;2023-06-26T09:58:05;4.82;;;4.00;;
75272;SDS011;63869;52.344;16.928;2023-06-26T10:00:31;6.65;;;3.38;;
75272;SDS011;63869;52.344;16.928;2023-06-26T10:02:58;5.35;;;3.67;;
75272;SDS011;63869;52.344;16.928;2023-06-26T10:05:24;4.50;;;3.75;;
75272;SDS011;63869;52.344;16.928;2023-06-26T10:07:49;5.03;;;3.80;;
75272;SDS011;63869;52.344;16.928;2023-06-26T10:10:15;5.32;;;3.78;;
75272;SDS011;63869;52.344;16.928;2023-06-26T10:12:42;5.97;;;3.78;;
75272;SDS011;63869;52.344;16.928;2023-06-26T10:15:13;6.15;;;3.95;;
75272;SDS011;63869;52.344;16.928;2023-06-26T10:17:41;8.02;;;3.78;;
75272;SDS011;63869;52.344;16.928;2023-06-26T10:20:08;4.60;;;3.50;;
75272;SDS011;63869;52.344;16.928;2023-06-26T10:22:39;22.10;;;5.13;;
75272;SDS011;63869;52.344;16.928;2023-06-26T10:25:09;5.82;;;4.03;;
75272;SDS011;63869;52.344;16.928;2023-06-26T10:27:38;5.10;;;3.85;;
75272;SDS011;63869;52.344;16.928;2023-06-26T10:30:13;11.43;;;4.05;;
75272;SDS011;63869;52.344;16.928;2023-06-26T10:32:42;6.85;;;4.55;;
75272;SDS011;63869;52.344;16.928;2023-06-26T10:35:08;5.45;;;3.90;;
75272;SDS011;63869;52.344;16.928;2023-06-26T10:37:45;6.30;;;4.05;;
75272;SDS011;63869;52.344;16.928;2023-06-26T10:40:12;5.15;;;3.90;;
75272;SDS011;63869;52.344;16.928;2023-06-26T10:42:45;15.35;;;4.40;;
75272;SDS011;63869;52.344;16.928;2023-06-26T10:45:13;6.03;;;3.70;;
75272;SDS011;63869;52.344;16.928;2023-06-26T10:47:41;8.90;;;4.22;;
75272;SDS011;63869;52.344;16.928;2023-06-26T10:50:20;5.03;;;4.00;;
75272;SDS011;63869;52.344;16.928;2023-06-26T10:55:43;14.02;;;4.32;;
75272;SDS011;63869;52.344;16.928;2023-06-26T11:03:39;5.50;;;4.28;;
75272;SDS011;63869;52.344;16.928;2023-06-26T11:06:09;5.90;;;4.20;;
75272;SDS011;63869;52.344;16.928;2023-06-26T11:11:10;8.23;;;3.72;;
75272;SDS011;63869;52.344;16.928;2023-06-26T11:13:36;5.85;;;3.97;;
75272;SDS011;63869;52.344;16.928;2023-06-26T11:16:02;5.50;;;3.60;;
75272;SDS011;63869;52.344;16.928;2023-06-26T11:18:28;5.60;;;3.70;;
75272;SDS011;63869;52.344;16.928;2023-06-26T11:20:54;7.85;;;4.32;;
75272;SDS011;63869;52.344;16.928;2023-06-26T11:23:29;8.13;;;4.35;;
75272;SDS011;63869;52.344;16.928;2023-06-26T11:25:56;14.30;;;4.75;;
75272;SDS011;63869;52.344;16.928;2023-06-26T11:28:22;7.38;;;4.13;;
75272;SDS011;63869;52.344;16.928;2023-06-26T11:30:47;7.95;;;4.30;;
75272;SDS011;63869;52.344;16.928;2023-06-26T11:33:13;15.60;;;6.28;;
75272;SDS011;63869;52.344;16.928;2023-06-26T11:35:39;5.25;;;3.85;;
75272;SDS011;63869;52.344;16.928;2023-06-26T11:38:05;6.63;;;4.32;;
75272;SDS011;63869;52.344;16.928;2023-06-26T11:40:33;5.75;;;3.90;;
75272;SDS011;63869;52.344;16.928;2023-06-26T11:43:00;7.18;;;4.45;;
75272;SDS011;63869;52.344;16.928;2023-06-26T11:45:28;5.90;;;3.83;;
75272;SDS011;63869;52.344;16.928;2023-06-26T11:47:55;5.93;;;3.83;;
75272;SDS011;63869;52.344;16.928;2023-06-26T11:50:21;6.78;;;3.50;;
75272;SDS011;63869;52.344;16.928;2023-06-26T11:52:57;6.28;;;3.95;;
75272;SDS011;63869;52.344;16.928;2023-06-26T11:55:23;9.25;;;3.97;;
75272;SDS011;63869;52.344;16.928;2023-06-26T11:57:50;7.20;;;4.32;;
75272;SDS011;63869;52.344;16.928;2023-06-26T12:00:19;7.05;;;3.88;;
75272;SDS011;63869;52.344;16.928;2023-06-26T12:02:45;4.57;;;3.50;;
75272;SDS011;63869;52.344;16.928;2023-06-26T12:05:14;6.43;;;3.67;;
75272;SDS011;63869;52.344;16.928;2023-06-26T12:07:41;5.80;;;3.75;;
75272;SDS011;63869;52.344;16.928;2023-06-26T12:10:08;5.63;;;3.83;;
75272;SDS011;63869;52.344;16.928;2023-06-26T12:12:35;10.75;;;4.88;;
75272;SDS011;63869;52.344;16.928;2023-06-26T12:15:01;11.32;;;5.30;;
75272;SDS011;63869;52.344;16.928;2023-06-26T12:17:27;9.68;;;4.63;;
75272;SDS011;63869;52.344;16.928;2023-06-26T12:19:53;4.65;;;3.40;;
75272;SDS011;63869;52.344;16.928;2023-06-26T12:22:18;7.68;;;3.88;;
75272;SDS011;63869;52.344;16.928;2023-06-26T12:24:44;6.20;;;3.60;;
75272;SDS011;63869;52.344;16.928;2023-06-26T12:27:11;3.92;;;3.45;;
75272;SDS011;63869;52.344;16.928;2023-06-26T12:29:45;5.57;;;3.63;;
75272;SDS011;63869;52.344;16.928;2023-06-26T12:32:15;4.20;;;3.75;;
75272;SDS011;63869;52.344;16.928;2023-06-26T12:34:40;6.00;;;3.80;;
75272;SDS011;63869;52.344;16.928;2023-06-26T12:37:11;5.18;;;3.90;;
75272;SDS011;63869;52.344;16.928;2023-06-26T12:42:15;7.20;;;4.15;;
75272;SDS011;63869;52.344;16.928;2023-06-26T12:44:42;4.85;;;4.15;;
75272;SDS011;63869;52.344;16.928;2023-06-26T12:47:07;4.80;;;4.30;;
75272;SDS011;63869;52.344;16.928;2023-06-26T12:49:37;7.43;;;4.30;;
75272;SDS011;63869;52.344;16.928;2023-06-26T12:52:04;6.95;;;4.20;;
75272;SDS011;63869;52.344;16.928;2023-06-26T12:54:31;8.75;;;4.60;;
75272;SDS011;63869;52.344;16.928;2023-06-26T12:56:58;7.05;;;4.50;;
75272;SDS011;63869;52.344;16.928;2023-06-26T12:59:23;5.50;;;4.53;;
75272;SDS011;63869;52.344;16.928;2023-06-26T13:01:49;7.40;;;4.90;;
75272;SDS011;63869;52.344;16.928;2023-06-26T13:04:15;5.47;;;4.80;;
75272;SDS011;63869;52.344;16.928;2023-06-26T13:06:40;7.43;;;4.15;;
75272;SDS011;63869;52.344;16.928;2023-06-26T13:09:06;5.78;;;4.45;;
75272;SDS011;63869;52.344;16.928;2023-06-26T13:11:31;7.35;;;4.53;;
75272;SDS011;63869;52.344;16.928;2023-06-26T13:13:57;8.35;;;4.75;;
75272;SDS011;63869;52.344;16.928;2023-06-26T13:16:23;7.05;;;4.57;;
75272;SDS011;63869;52.344;16.928;2023-06-26T13:18:48;5.20;;;4.30;;
75272;SDS011;63869;52.344;16.928;2023-06-26T13:21:14;5.53;;;4.30;;
75272;SDS011;63869;52.344;16.928;2023-06-26T13:23:43;7.18;;;4.38;;
75272;SDS011;63869;52.344;16.928;2023-06-26T13:26:08;5.65;;;4.35;;
75272;SDS011;63869;52.344;16.928;2023-06-26T13:28:35;5.53;;;4.13;;
75272;SDS011;63869;52.344;16.928;2023-06-26T13:31:01;4.75;;;4.22;;
75272;SDS011;63869;52.344;16.928;2023-06-26T13:33:27;7.20;;;4.53;;
75272;SDS011;63869;52.344;16.928;2023-06-26T13:35:52;5.40;;;4.22;;
75272;SDS011;63869;52.344;16.928;2023-06-26T13:38:21;5.13;;;3.92;;
75272;SDS011;63869;52.344;16.928;2023-06-26T13:40:51;5.85;;;4.22;;
75272;SDS011;63869;52.344;16.928;2023-06-26T13:43:20;4.68;;;4.15;;
75272;SDS011;63869;52.344;16.928;2023-06-26T13:45:45;4.70;;;3.78;;
75272;SDS011;63869;52.344;16.928;2023-06-26T13:48:11;4.90;;;4.20;;
75272;SDS011;63869;52.344;16.928;2023-06-26T13:50:36;4.93;;;4.10;;
75272;SDS011;63869;52.344;16.928;2023-06-26T13:53:01;4.73;;;4.20;;
75272;SDS011;63869;52.344;16.928;2023-06-26T13:55:27;5.45;;;4.20;;
75272;SDS011;63869;52.344;16.928;2023-06-26T13:57:52;4.75;;;4.15;;
75272;SDS011;63869;52.344;16.928;2023-06-26T14:00:17;5.38;;;4.38;;
75272;SDS011;63869;52.344;16.928;2023-06-26T14:02:45;5.78;;;4.22;;
75272;SDS011;63869;52.344;16.928;2023-06-26T14:05:11;6.85;;;4.43;;
75272;SDS011;63869;52.344;16.928;2023-06-26T14:07:36;5.85;;;4.38;;
75272;SDS011;63869;52.344;16.928;2023-06-26T14:10:03;6.90;;;4.43;;
75272;SDS011;63869;52.344;16.928;2023-06-26T14:12:30;4.82;;;4.32;;
75272;SDS011;63869;52.344;16.928;2023-06-26T14:14:55;31.85;;;5.57;;
75272;SDS011;63869;52.344;16.928;2023-06-26T14:17:21;4.90;;;4.18;;
75272;SDS011;63869;52.344;16.928;2023-06-26T14:19:49;5.70;;;4.20;;
75272;SDS011;63869;52.344;16.928;2023-06-26T14:22:15;6.97;;;4.10;;
75272;SDS011;63869;52.344;16.928;2023-06-26T14:24:40;8.63;;;4.40;;
75272;SDS011;63869;52.344;16.928;2023-06-26T14:27:05;6.95;;;4.40;;
75272;SDS011;63869;52.344;16.928;2023-06-26T14:29:31;5.00;;;4.13;;
75272;SDS011;63869;52.344;16.928;2023-06-26T14:31:56;10.38;;;4.50;;
75272;SDS011;63869;52.344;16.928;2023-06-26T14:34:21;4.90;;;4.13;;
75272;SDS011;63869;52.344;16.928;2023-06-26T14:36:47;4.88;;;4.38;;
75272;SDS011;63869;52.344;16.928;2023-06-26T14:39:12;5.63;;;4.23;;
75272;SDS011;63869;52.344;16.928;2023-06-26T14:41:37;5.30;;;4.80;;
75272;SDS011;63869;52.344;16.928;2023-06-26T14:44:03;5.67;;;4.70;;
75272;SDS011;63869;52.344;16.928;2023-06-26T14:46:29;5.47;;;4.40;;